Terminal Aerodrome Forecast
Issued by NWS

Home | Current Version | Previous Version | Text Only | Print | Product List | Glossary On
Versions: 1 2 3 4 5 6 7 8 9 10 11 12 13 14 15 16 17 18 19 20 21 22 23 24
442
FTUS42 TJSJ 282337
TAFKPK
TAF
TKPK 282337Z 2900/2924 06008KT P6SM VCSH SCT018
     FM291300 06015KT P6SM VCTS SCT020CB
      AMD NOT SKED 2902/2911=

USA.gov is the U.S. government's official web portal to all federal, state and local government web resources and services.